Time;durP1;ratioP1;P1;durP2;ratioP2;P2;SDS_P1;SDS_P2;PMS_P1;PMS_P2;Temp;Humidity;BMP_temperature;BMP_pressure;BME280_temperature;BME280_humidity;BME280_pressure;Samples;Min_cycle;Max_cycle;Signal;HPM_P1;HPM_P2
2022/12/06 00:01:14;;;;;;;8.93;5.53;;;;;;;6.00;100.00;100360.78;6373085;27;20035;-77
2022/12/06 00:04:15;;;;;;;9.88;5.28;;;;;;;5.96;100.00;100360.97;6373044;27;20406;-77
2022/12/06 00:07:16;;;;;;;12.10;6.00;;;;;;;5.89;100.00;100351.69;6371481;27;20074;-76
2022/12/06 00:10:17;;;;;;;8.98;5.75;;;;;;;5.86;100.00;100347.47;6372110;27;20039;-76
2022/12/06 00:13:17;;;;;;;11.85;5.22;;;;;;;5.79;100.00;100338.25;6371770;27;20050;-76
2022/12/06 00:16:18;;;;;;;8.85;5.22;;;;;;;5.71;100.00;100320.38;6371669;27;20078;-77
2022/12/06 00:19:21;;;;;;;9.85;5.50;;;;;;;5.80;100.00;100330.41;6371662;27;20119;-77
2022/12/06 00:22:22;;;;;;;10.02;5.35;;;;;;;5.76;100.00;100326.22;6372640;27;20482;-76
2022/12/06 00:25:22;;;;;;;9.60;5.78;;;;;;;5.79;100.00;100327.88;6371325;27;20046;-76
2022/12/06 00:28:23;;;;;;;8.80;5.15;;;;;;;5.78;100.00;100326.19;6371238;27;20118;-76
2022/12/06 00:31:25;;;;;;;15.10;6.88;;;;;;;5.78;100.00;100318.41;6354127;27;20122;-77
2022/12/06 00:34:26;;;;;;;9.48;6.10;;;;;;;5.82;100.00;100322.56;6371887;27;20043;-77
2022/12/06 00:37:26;;;;;;;10.55;5.95;;;;;;;5.78;100.00;100306.31;6372398;27;20045;-77
2022/12/06 00:40:27;;;;;;;10.70;5.78;;;;;;;5.78;100.00;100303.72;6371131;27;20130;-76
2022/12/06 00:43:28;;;;;;;7.68;4.45;;;;;;;5.85;100.00;100304.34;6371048;27;20042;-76
2022/12/06 00:46:30;;;;;;;11.82;6.20;;;;;;;5.85;100.00;100309.53;6371045;27;20035;-77
2022/12/06 00:49:31;;;;;;;14.77;6.10;;;;;;;5.81;100.00;100311.38;6372140;27;20031;-77
2022/12/06 00:52:32;;;;;;;12.60;7.55;;;;;;;5.81;100.00;100307.97;6372277;27;20074;-77
2022/12/06 00:55:33;;;;;;;18.80;8.88;;;;;;;5.82;100.00;100310.47;6370662;27;20063;-76
2022/12/06 00:58:34;;;;;;;13.18;7.38;;;;;;;5.81;100.00;100301.03;6370562;28;20507;-76
2022/12/06 01:01:35;;;;;;;11.27;6.30;;;;;;;5.79;100.00;100305.41;6353552;28;20043;-76
2022/12/06 01:04:36;;;;;;;10.85;6.00;;;;;;;5.81;100.00;100300.19;6372052;27;20047;-77
2022/12/06 01:07:36;;;;;;;9.73;5.05;;;;;;;5.85;100.00;100309.53;6371783;27;20526;-76
2022/12/06 01:10:38;;;;;;;10.45;5.88;;;;;;;5.82;100.00;100291.50;6371898;27;20501;-76
2022/12/06 01:13:38;;;;;;;8.32;5.55;;;;;;;5.79;100.00;100284.69;6371795;28;20040;-77
2022/12/06 01:16:39;;;;;;;10.60;5.70;;;;;;;5.80;100.00;100273.44;6372252;27;20047;-76
2022/12/06 01:19:40;;;;;;;8.93;5.68;;;;;;;5.82;100.00;100273.38;6371807;27;20067;-76
2022/12/06 01:22:40;;;;;;;10.68;5.32;;;;;;;5.81;100.00;100276.88;6372736;28;20518;-77
2022/12/06 01:25:51;;;;;;;8.70;5.28;;;;;;;5.72;100.00;100265.09;6372628;27;20047;-77
2022/12/06 01:28:52;;;;;;;8.85;4.30;;;;;;;5.72;100.00;100257.34;6371809;28;20051;-77
2022/12/06 01:31:52;;;;;;;11.32;4.78;;;;;;;5.74;100.00;100260.72;6372774;27;20043;-76
2022/12/06 01:34:53;;;;;;;6.93;4.07;;;;;;;5.71;100.00;100258.25;6372743;27;20582;-77
2022/12/06 01:37:54;;;;;;;7.20;4.18;;;;;;;5.74;100.00;100263.31;6372534;27;20047;-76
2022/12/06 01:40:55;;;;;;;7.95;4.68;;;;;;;5.80;100.00;100270.84;6372426;27;20474;-78
2022/12/06 01:43:57;;;;;;;7.75;4.82;;;;;;;5.80;100.00;100260.47;6372094;27;20043;-76
2022/12/06 01:46:58;;;;;;;7.13;4.43;;;;;;;5.77;100.00;100255.44;6374788;27;20061;-76
2022/12/06 01:50:17;;;;;;;8.32;4.30;;;;;;;5.74;100.00;100255.53;6358807;27;20051;-77
2022/12/06 01:53:18;;;;;;;8.65;4.63;;;;;;;5.69;100.00;100261.81;6358572;27;20058;-76
2022/12/06 01:56:20;;;;;;;9.95;5.47;;;;;;;5.71;100.00;100249.66;6375663;27;20043;-77
2022/12/06 01:59:24;;;;;;;10.02;5.60;;;;;;;5.73;100.00;100242.66;6376092;27;20071;-77
2022/12/06 02:02:24;;;;;;;12.23;5.50;;;;;;;5.78;100.00;100243.31;6377166;27;20088;-77
2022/12/06 02:05:27;;;;;;;12.07;5.07;;;;;;;5.72;100.00;100231.44;6375958;27;20122;-77
2022/12/06 02:08:28;;;;;;;;;;;;;;;5.72;100.00;100234.03;6358499;27;20043;-77
2022/12/06 02:11:29;;;;;;;6.63;3.75;;;;;;;5.74;100.00;100224.47;6375564;27;19963;-76
2022/12/06 02:14:32;;;;;;;6.45;4.28;;;;;;;5.73;100.00;100227.97;6374992;27;20047;-76
2022/12/06 02:17:48;;;;;;;8.93;5.28;;;;;;;5.76;100.00;100224.41;6376344;27;20493;-76
2022/12/06 02:21:00;;;;;;;10.07;4.68;;;;;;;5.77;100.00;100219.19;6376740;27;20067;-77
2022/12/06 02:24:26;;;;;;;7.40;4.30;;;;;;;5.74;100.00;100215.84;6376622;27;20422;-76
2022/12/06 02:27:43;;;;;;;8.10;4.90;;;;;;;5.80;100.00;100208.69;6374943;27;20054;-76
2022/12/06 02:31:05;;;;;;;9.23;3.92;;;;;;;5.85;100.00;100211.13;6376422;27;20463;-77
2022/12/06 02:34:17;;;;;;;7.18;3.92;;;;;;;5.84;100.00;100197.31;6376431;27;20439;-75
2022/12/06 02:37:56;;;;;;;;;;;;;;;5.88;100.00;100197.22;6375272;27;20390;-76
2022/12/06 02:41:01;;;;;;;4.85;2.85;;;;;;;5.87;100.00;100188.59;6322727;28;20441;-77
2022/12/06 02:44:05;;;;;;;12.23;5.45;;;;;;;5.90;100.00;100185.03;6322596;28;20055;-76
2022/12/06 02:47:10;;;;;;;7.45;4.65;;;;;;;5.92;100.00;100176.31;6357611;27;20051;-77
2022/12/06 02:50:18;;;;;;;7.78;4.45;;;;;;;5.92;100.00;100176.31;6374526;27;20043;-77
2022/12/06 02:53:21;;;;;;;6.38;4.43;;;;;;;5.92;100.00;100172.88;6375862;27;20049;-76
2022/12/06 02:56:23;;;;;;;9.38;4.55;;;;;;;5.91;100.00;100179.81;6356427;27;20062;-76
2022/12/06 02:59:24;;;;;;;7.43;4.78;;;;;;;5.95;100.00;100165.00;6375740;27;20039;-77
2022/12/06 03:02:24;;;;;;;7.80;5.13;;;;;;;5.98;100.00;100167.47;6375838;27;20057;-76
2022/12/06 03:05:34;;;;;;;9.80;5.03;;;;;;;6.00;100.00;100163.91;6375383;27;20043;-76
2022/12/06 03:09:01;;;;;;;10.68;5.63;;;;;;;6.00;100.00;100160.50;6373973;27;20045;-77
2022/12/06 03:12:14;;;;;;;8.73;4.32;;;;;;;6.03;100.00;100171.59;6347149;27;20400;-76
2022/12/06 03:15:25;;;;;;;6.32;3.38;;;;;;;6.03;100.00;100162.94;6375263;27;20047;-77
2022/12/06 03:18:53;;;;;;;7.28;4.63;;;;;;;6.07;100.00;100155.91;6374148;27;20506;-77
2022/12/06 03:22:05;;;;;;;7.45;4.93;;;;;;;6.06;100.00;100165.44;6375022;27;20039;-76
2022/12/06 03:25:08;;;;;;;19.88;7.13;;;;;;;6.08;100.00;100161.03;6374783;27;20387;-76
2022/12/06 03:28:15;;;;;;;20.52;9.57;;;;;;;6.08;100.00;100161.03;6374182;27;20054;-76
2022/12/06 03:31:16;;;;;;;18.73;9.25;;;;;;;6.01;100.00;100152.66;6373596;27;20479;-76
2022/12/06 03:34:39;;;;;;;19.17;9.10;;;;;;;6.01;100.00;100162.16;6374715;27;20076;-77
2022/12/06 03:37:43;;;;;;;10.40;5.70;;;;;;;5.96;100.00;100154.59;6374970;27;20047;-77
2022/12/06 03:40:48;;;;;;;9.20;4.82;;;;;;;5.97;100.00;100145.06;6373515;27;20054;-77
2022/12/06 03:43:49;;;;;;;8.05;4.85;;;;;;;5.91;100.00;100143.56;6373340;27;20060;-76
2022/12/06 03:46:59;;;;;;;6.13;4.07;;;;;;;5.94;100.00;100142.56;6374649;27;20468;-76
2022/12/06 03:50:06;;;;;;;7.50;4.57;;;;;;;5.92;100.00;100137.44;6373097;27;20057;-76
2022/12/06 03:53:07;;;;;;;10.50;4.40;;;;;;;5.92;100.00;100137.44;6373142;27;20043;-76
2022/12/06 03:56:10;;;;;;;5.78;3.95;;;;;;;5.99;100.00;100141.53;6374375;27;20039;-76
2022/12/06 03:59:11;;;;;;;5.93;4.07;;;;;;;6.01;100.00;100131.06;6374216;27;20046;-77
2022/12/06 04:02:12;;;;;;;8.73;4.88;;;;;;;5.99;100.00;100136.34;6373893;27;20118;-76
2022/12/06 04:05:15;;;;;;;13.27;5.18;;;;;;;5.99;100.00;100131.16;6373890;27;20043;-77
2022/12/06 04:08:16;;;;;;;11.48;5.65;;;;;;;5.97;100.00;100132.09;6372953;27;20544;-76
2022/12/06 04:11:18;;;;;;;10.73;6.07;;;;;;;6.02;100.00;100131.03;6372548;27;20046;-77
2022/12/06 04:14:18;;;;;;;15.55;6.97;;;;;;;5.96;100.00;100128.69;6372726;27;20063;-76
2022/12/06 04:24:03;;;;;;;6.07;3.80;;;;;;;5.90;100.00;100105.59;6373467;27;20039;-76
2022/12/06 04:40:22;;;;;;;6.25;4.10;;;;;;;5.86;100.00;100104.88;6373168;27;20047;-76
2022/12/06 04:43:41;;;;;;;5.35;3.30;;;;;;;5.78;100.00;100103.50;6373163;27;20070;-76
2022/12/06 04:46:43;;;;;;;6.53;3.80;;;;;;;5.78;100.00;100093.97;6373253;27;20043;-76
2022/12/06 04:49:44;;;;;;;9.10;4.65;;;;;;;5.77;100.00;100094.06;6371813;27;20491;-76
2022/12/06 04:52:45;;;;;;;9.82;4.45;;;;;;;5.74;100.00;100099.34;6371655;27;20051;-77
2022/12/06 04:55:47;;;;;;;7.43;4.60;;;;;;;5.69;100.00;100096.94;6373263;27;20143;-76
2022/12/06 04:58:50;;;;;;;5.10;4.03;;;;;;;5.70;100.00;100097.78;6373031;27;20398;-76
2022/12/06 05:01:52;;;;;;;6.60;4.10;;;;;;;5.73;100.00;100098.50;6372054;28;20047;-77
2022/12/06 05:04:52;;;;;;;7.70;4.03;;;;;;;5.74;100.00;100096.75;6371421;28;20051;-77
2022/12/06 05:07:53;;;;;;;14.68;4.90;;;;;;;5.78;100.00;100111.25;6371998;27;20108;-76
2022/12/06 05:10:54;;;;;;;6.40;3.92;;;;;;;5.74;100.00;100101.94;6372337;27;20039;-77
2022/12/06 05:13:54;;;;;;;6.70;4.03;;;;;;;5.73;100.00;100097.69;6373059;27;20046;-76
2022/12/06 05:16:55;;;;;;;8.20;4.07;;;;;;;5.69;100.00;100093.53;6371650;28;20494;-76
2022/12/06 05:19:56;;;;;;;8.55;4.63;;;;;;;5.71;100.00;100092.56;6356837;27;20055;-76
2022/12/06 05:22:56;;;;;;;10.40;4.43;;;;;;;5.73;100.00;100095.94;6377821;27;20043;-76
2022/12/06 05:26:01;;;;;;;10.63;4.82;;;;;;;5.76;100.00;100090.59;6377351;27;20117;-76
2022/12/06 05:29:02;;;;;;;8.13;4.78;;;;;;;5.74;100.00;100086.41;6376744;27;20040;-76
2022/12/06 05:32:03;;;;;;;10.13;5.22;;;;;;;5.72;100.00;100083.03;6375572;27;20046;-76
2022/12/06 05:35:04;;;;;;;10.07;4.05;;;;;;;5.71;100.00;100073.59;6375582;27;20074;-75
2022/12/06 05:38:04;;;;;;;8.45;4.82;;;;;;;5.74;100.00;100063.94;6376615;27;20079;-77
2022/12/06 05:41:07;;;;;;;7.20;4.30;;;;;;;5.74;100.00;100060.50;6376786;27;20039;-77
2022/12/06 05:44:11;;;;;;;7.35;4.85;;;;;;;5.60;100.00;100058.47;6376589;27;20061;-76
2022/12/06 05:47:11;;;;;;;8.60;4.97;;;;;;;5.64;100.00;100060.91;6357978;27;20490;-77
2022/12/06 05:50:12;;;;;;;7.55;4.63;;;;;;;5.67;100.00;100046.97;6376476;27;20092;-77
2022/12/06 05:53:13;;;;;;;7.32;4.15;;;;;;;5.65;100.00;100041.88;6375064;27;20051;-77
2022/12/06 05:56:14;;;;;;;6.75;4.03;;;;;;;5.63;100.00;100040.25;6376112;27;20483;-76
2022/12/06 05:59:15;;;;;;;7.68;3.88;;;;;;;5.60;100.00;100041.22;6374981;27;20039;-77
2022/12/06 06:02:16;;;;;;;19.90;4.35;;;;;;;5.58;100.00;100043.03;6376152;27;20046;-76
2022/12/06 06:05:17;;;;;;;8.02;3.90;;;;;;;5.59;100.00;100039.53;6375030;27;20035;-76
2022/12/06 06:08:18;;;;;;;6.57;3.95;;;;;;;5.52;100.00;100043.28;6374530;27;20063;-76
2022/12/06 06:11:18;;;;;;;6.22;3.92;;;;;;;5.58;100.00;100037.84;6375907;27;20043;-76
2022/12/06 06:14:19;;;;;;;5.20;4.10;;;;;;;5.60;100.00;100033.47;6374644;27;20402;-76
2022/12/06 06:17:23;;;;;;;8.55;3.88;;;;;;;5.62;100.00;100036.81;6374725;27;20039;-77
2022/12/06 06:20:23;;;;;;;6.57;4.07;;;;;;;5.68;100.00;100033.13;6375303;27;20062;-77
2022/12/06 06:23:26;;;;;;;7.72;3.53;;;;;;;5.74;100.00;100032.03;6375718;27;20487;-77
2022/12/06 06:26:29;;;;;;;6.45;3.90;;;;;;;5.77;100.00;100029.34;6375276;27;20043;-77
2022/12/06 06:29:29;;;;;;;6.13;3.63;;;;;;;5.81;100.00;100036.91;6375339;27;20042;-76
2022/12/06 06:32:30;;;;;;;7.97;4.32;;;;;;;5.77;100.00;100030.16;6373236;27;20482;-76
2022/12/06 06:35:31;;;;;;;4.82;3.50;;;;;;;5.83;100.00;100024.72;6375234;27;20031;-76
2022/12/06 06:38:32;;;;;;;9.80;4.15;;;;;;;5.86;100.00;100032.34;6375201;27;20053;-77
2022/12/06 06:41:32;;;;;;;6.05;3.95;;;;;;;5.88;100.00;100037.47;6373598;27;20460;-77
2022/12/06 06:44:33;;;;;;;7.50;4.40;;;;;;;5.93;100.00;100035.56;6374947;27;20070;-77
2022/12/06 06:47:34;;;;;;;5.72;3.80;;;;;;;5.98;100.00;100038.81;6356458;27;20039;-77
2022/12/06 06:50:35;;;;;;;8.25;4.25;;;;;;;5.96;100.00;100038.03;6373611;27;20047;-76
2022/12/06 06:53:36;;;;;;;6.40;3.85;;;;;;;5.96;100.00;100037.19;6374665;27;20490;-76
2022/12/06 06:56:40;;;;;;;4.43;2.70;;;;;;;5.98;100.00;100037.97;6373413;27;20127;-76
2022/12/06 06:59:41;;;;;;;6.53;4.25;;;;;;;6.03;100.00;100047.25;6374459;27;20035;-76
2022/12/06 07:02:42;;;;;;;5.53;4.00;;;;;;;6.02;100.00;100032.59;6373332;27;20039;-76
2022/12/06 07:05:53;;;;;;;5.45;4.13;;;;;;;6.12;100.00;100040.81;6356163;27;20107;-77
2022/12/06 07:08:54;;;;;;;10.13;4.38;;;;;;;6.10;100.00;100023.66;6373103;27;20039;-76
2022/12/06 07:11:56;;;;;;;7.05;4.45;;;;;;;6.12;100.00;100016.69;6374204;27;20031;-76
2022/12/06 07:14:56;;;;;;;6.83;4.03;;;;;;;6.07;100.00;100018.59;6374398;27;20514;-76
2022/12/06 07:17:57;;;;;;;6.75;4.07;;;;;;;6.16;100.00;100019.06;6373035;27;20047;-77
2022/12/06 07:21:04;;;;;;;7.47;3.80;;;;;;;6.24;100.00;100014.38;6372726;27;20089;-77
2022/12/06 07:24:05;;;;;;;8.57;5.18;;;;;;;6.29;100.00;100016.75;6372930;27;20043;-77
2022/12/06 07:27:06;;;;;;;6.97;4.28;;;;;;;6.38;100.00;100020.69;6373923;27;20394;-76
2022/12/06 07:30:07;;;;;;;8.55;4.93;;;;;;;6.42;100.00;100022.25;6373831;27;20039;-76
2022/12/06 07:33:08;;;;;;;6.97;4.00;;;;;;;6.54;100.00;100013.09;6373731;27;20046;-76
2022/12/06 07:36:10;;;;;;;9.90;6.32;;;;;;;6.60;100.00;100010.22;6355258;27;20055;-77
2022/12/06 07:39:11;;;;;;;15.40;9.68;;;;;;;6.64;100.00;100004.00;6373628;27;20043;-76
2022/12/06 07:45:31;;;;;;;15.95;9.75;;;;;;;6.47;100.00;100007.34;6373512;27;20383;-77
2022/12/06 07:48:31;;;;;;;13.73;9.85;;;;;;;6.59;100.00;100014.56;6372204;27;20043;-76
2022/12/06 07:51:33;;;;;;;12.43;7.68;;;;;;;6.63;100.00;100010.06;6372031;27;20041;-76
2022/12/06 07:54:34;;;;;;;9.82;6.38;;;;;;;6.65;100.00;100000.47;6372067;27;20522;-77
2022/12/06 07:57:34;;;;;;;7.97;5.85;;;;;;;6.65;100.00;99998.75;6373217;27;20059;-76
2022/12/06 08:00:36;;;;;;;8.23;5.28;;;;;;;6.72;100.00;100011.44;6371862;27;20039;-76
2022/12/06 08:03:37;;;;;;;16.25;6.00;;;;;;;6.69;100.00;100004.59;6373102;27;20039;-76
2022/12/06 08:06:38;;;;;;;10.88;6.10;;;;;;;6.70;100.00;100006.31;6354382;27;20059;-77
2022/12/06 08:09:39;;;;;;;10.02;5.95;;;;;;;6.75;100.00;100001.72;6373007;27;20126;-76
2022/12/06 08:12:39;;;;;;;9.68;6.13;;;;;;;6.72;100.00;99993.28;6372833;27;20043;-77
2022/12/06 08:15:45;;;;;;;16.08;7.90;;;;;;;6.74;100.00;100004.41;6372740;27;20045;-77
2022/12/06 08:18:46;;;;;;;9.52;5.57;;;;;;;6.71;100.00;100010.56;6372744;27;20325;-77
2022/12/06 08:21:47;;;;;;;8.38;5.05;;;;;;;6.74;100.00;100010.44;6371540;27;20039;-76
2022/12/06 08:24:50;;;;;;;6.25;3.88;;;;;;;6.77;100.00;100017.22;6371755;27;20127;-77
2022/12/06 08:27:51;;;;;;;12.95;7.75;;;;;;;6.71;100.00;100010.56;6354351;27;20100;-76
2022/12/06 08:30:51;;;;;;;26.20;12.93;;;;;;;6.74;100.00;100007.00;6371159;27;20043;-76
2022/12/06 08:33:53;;;;;;;25.42;13.00;;;;;;;6.71;100.00;100007.97;6372347;27;20043;-76
2022/12/06 08:36:54;;;;;;;14.60;8.02;;;;;;;6.72;100.00;99998.47;6371320;27;20047;-77
2022/12/06 08:39:55;;;;;;;13.30;7.32;;;;;;;6.79;100.00;100008.44;6371173;27;20470;-77
2022/12/06 08:42:55;;;;;;;7.85;5.53;;;;;;;6.83;100.00;100010.00;6371061;27;20097;-76
2022/12/06 08:45:59;;;;;;;10.18;5.00;;;;;;;6.91;100.00;99996.69;6372244;27;20523;-76
2022/12/06 08:49:01;;;;;;;8.13;4.93;;;;;;;6.98;100.00;99999.81;6370755;27;20134;-76
2022/12/06 08:52:02;;;;;;;17.08;4.95;;;;;;;7.09;100.00;99997.56;6370756;27;20110;-76
2022/12/06 08:55:03;;;;;;;10.10;5.63;;;;;;;7.14;100.00;99993.00;6371655;27;20468;-76
2022/12/06 08:58:03;;;;;;;11.77;6.03;;;;;;;7.23;100.00;99982.19;6370702;27;20055;-77
2022/12/06 09:01:18;;;;;;;15.20;5.60;;;;;;;7.21;100.00;99978.00;6370770;27;20103;-77
2022/12/06 09:04:19;;;;;;;13.07;6.50;;;;;;;7.33;100.00;99974.81;6370704;28;20055;-75
2022/12/06 09:07:21;;;;;;;14.52;7.82;;;;;;;7.47;100.00;99977.56;6370574;28;20093;-77
2022/12/06 09:10:22;;;;;;;11.93;6.68;;;;;;;7.55;100.00;99964.19;6370625;28;20515;-76
2022/12/06 09:13:23;;;;;;;8.43;5.10;;;;;;;7.64;100.00;99966.34;6370522;28;20040;-77
2022/12/06 09:16:26;;;;;;;6.97;4.55;;;;;;;7.73;100.00;99966.78;6371900;27;20043;-76
2022/12/06 09:19:27;;;;;;;10.50;5.10;;;;;;;7.74;100.00;99953.72;6370439;28;20035;-77
2022/12/06 09:22:28;;;;;;;8.30;4.95;;;;;;;7.78;100.00;99957.00;6353223;28;20055;-76
2022/12/06 09:25:29;;;;;;;8.63;5.38;;;;;;;7.82;100.00;99945.53;6371664;27;20478;-76
2022/12/06 09:28:30;;;;;;;11.25;6.55;;;;;;;7.88;100.00;99946.03;6370490;28;20048;-76
2022/12/06 09:31:31;;;;;;;13.88;7.25;;;;;;;7.78;100.00;99928.41;6370322;28;20087;-77
2022/12/06 09:34:32;;;;;;;20.23;11.38;;;;;;;7.90;100.00;99934.75;6370324;28;20507;-77
2022/12/06 09:37:34;;;;;;;6.97;4.47;;;;;;;7.92;100.00;99925.13;6370231;28;20079;-76
2022/12/06 09:40:48;;;;;;;5.78;3.55;;;;;;;8.13;100.00;99931.78;6370278;28;20442;-77
2022/12/06 09:44:04;;;;;;;13.60;4.25;;;;;;;8.35;100.00;99931.47;6353101;28;20079;-76
2022/12/06 09:47:10;;;;;;;9.60;3.88;;;;;;;8.36;100.00;99929.72;6370262;28;20379;-76
2022/12/06 09:50:17;;;;;;;4.43;2.80;;;;;;;8.37;100.00;99926.19;6370261;28;20050;-77
2022/12/06 09:53:37;;;;;;;7.38;3.00;;;;;;;8.30;100.00;99923.09;6370008;28;20074;-76
2022/12/06 09:56:52;;;;;;;3.72;2.28;;;;;;;8.29;100.00;99918.81;6371464;28;20039;-76
2022/12/06 10:00:02;;;;;;;4.38;2.55;;;;;;;8.35;100.00;99915.03;6371359;27;20092;-77
2022/12/06 10:03:20;;;;;;;2.80;2.13;;;;;;;8.29;100.00;99911.00;6371081;27;20067;-76
2022/12/06 10:06:24;;;;;;;6.28;3.05;;;;;;;8.33;100.00;99911.69;6372431;27;20477;-76
2022/12/06 10:09:41;;;;;;;4.63;2.83;;;;;;;8.32;100.00;99913.47;6374541;27;20039;-76
2022/12/06 10:12:54;;;;;;;4.07;2.60;;;;;;;8.28;100.00;99909.34;6374455;27;20043;-75
2022/12/06 10:16:36;;;;;;;3.67;2.10;;;;;;;8.06;100.00;99902.69;6375641;27;20525;-76
2022/12/06 10:19:49;;;;;;;3.47;1.70;;;;;;;7.79;100.00;99901.53;6375083;27;20051;-76
2022/12/06 10:23:08;;;;;;;4.22;2.78;;;;;;;7.74;100.00;99901.78;6374139;27;20283;-76
2022/12/06 10:26:14;;;;;;;5.32;2.92;;;;;;;7.45;100.00;99898.06;6374244;27;20039;-76
2022/12/06 10:29:38;;;;;;;6.32;2.13;;;;;;;7.33;100.00;99885.69;6374136;27;20042;-76
2022/12/06 10:32:44;;;;;;;4.50;1.80;;;;;;;7.23;100.00;99893.13;6375225;27;20046;-77
2022/12/06 10:36:04;;;;;;;3.80;2.33;;;;;;;7.34;100.00;99875.25;6375331;27;20122;-77
2022/12/06 10:39:46;;;;;;;4.78;2.30;;;;;;;7.23;100.00;99878.38;6356845;27;20043;-77
2022/12/06 10:43:17;;;;;;;5.15;2.78;;;;;;;7.23;100.00;99870.59;6373892;27;20088;-77
2022/12/06 10:50:07;;;;;;;2.28;1.70;;;;;;;7.04;100.00;99864.63;6374961;27;20119;-77
2022/12/06 10:53:15;;;;;;;3.28;2.03;;;;;;;6.95;100.00;99862.50;6373547;27;20495;-76
2022/12/06 10:56:23;;;;;;;2.30;1.77;;;;;;;6.85;100.00;99870.72;6374767;27;20422;-77
2022/12/06 10:59:36;;;;;;;2.70;1.88;;;;;;;6.76;100.00;99863.38;6373370;27;20059;-77
2022/12/06 11:02:54;;;;;;;1.90;1.75;;;;;;;6.75;100.00;99860.88;6373397;27;20160;-77
2022/12/06 11:06:00;;;;;;;2.35;1.58;;;;;;;6.69;100.00;99840.41;6373318;27;20114;-76
2022/12/06 11:09:32;;;;;;;2.53;1.65;;;;;;;6.80;100.00;99851.13;6374431;27;20036;-76
2022/12/06 11:12:37;;;;;;;2.97;1.70;;;;;;;6.86;100.00;99849.06;6369590;27;20111;-76
2022/12/06 11:15:43;;;;;;;3.40;1.90;;;;;;;6.86;100.00;99835.25;6373099;27;20039;-77
2022/12/06 11:18:47;;;;;;;2.63;1.83;;;;;;;6.82;100.00;99839.75;6373891;27;20041;-76
2022/12/06 11:21:57;;;;;;;2.28;1.95;;;;;;;6.61;100.00;99843.38;6372823;27;20047;-76
2022/12/06 11:25:04;;;;;;;2.83;2.08;;;;;;;6.56;100.00;99841.00;6355705;27;20047;-76
2022/12/06 11:28:10;;;;;;;4.50;1.88;;;;;;;6.55;100.00;99830.72;6373979;27;20220;-76
2022/12/06 11:31:19;;;;;;;2.60;1.88;;;;;;;6.46;100.00;99824.22;6372548;27;20082;-76
2022/12/06 11:34:28;;;;;;;4.38;2.13;;;;;;;6.45;100.00;99827.72;6372570;27;20035;-76
2022/12/06 11:37:32;;;;;;;3.30;2.45;;;;;;;6.37;100.00;99835.84;6372542;27;20558;-76
2022/12/06 11:40:40;;;;;;;4.70;2.53;;;;;;;6.53;100.00;99832.56;6373684;27;20448;-76
2022/12/06 11:43:40;;;;;;;4.40;2.30;;;;;;;6.32;100.00;99829.22;6373458;27;20126;-76
2022/12/06 11:46:41;;;;;;;2.95;1.50;;;;;;;6.27;100.00;99833.78;6372297;27;20387;-77
2022/12/06 11:49:44;;;;;;;4.38;2.47;;;;;;;6.28;100.00;99828.53;6372168;27;20035;-77
2022/12/06 11:52:48;;;;;;;;;;;;;;;6.23;100.00;99826.13;6372429;27;20051;-77
2022/12/06 11:55:51;;;;;;;3.20;1.88;;;;;;;6.27;100.00;99831.19;6372091;27;19996;-77
2022/12/06 11:59:28;;;;;;;3.42;1.77;;;;;;;6.33;100.00;99829.13;6373125;27;20529;-76
2022/12/06 12:02:31;;;;;;;3.13;2.70;;;;;;;6.28;100.00;99831.13;6371819;27;20054;-76
2022/12/06 12:05:38;;;;;;;2.50;1.75;;;;;;;6.20;100.00;99835.81;6371831;27;20050;-76
2022/12/06 12:08:38;;;;;;;3.60;2.13;;;;;;;6.24;100.00;99845.97;6371582;27;20058;-76
2022/12/06 12:11:40;;;;;;;4.38;2.45;;;;;;;6.20;100.00;99844.44;6371598;27;20074;-76
2022/12/06 12:14:42;;;;;;;8.15;4.45;;;;;;;6.22;100.00;99834.84;6372766;27;20427;-77
2022/12/06 12:17:47;;;;;;;4.17;2.73;;;;;;;6.25;100.00;99832.09;6371673;27;20047;-78
2022/12/06 12:20:48;;;;;;;6.68;5.18;;;;;;;6.27;100.00;99826.00;6371432;27;20278;-77
2022/12/06 12:23:49;;;;;;;12.32;4.00;;;;;;;6.32;100.00;99827.47;6372638;27;20046;-77
2022/12/06 12:26:49;;;;;;;4.15;2.88;;;;;;;6.33;100.00;99811.00;6372446;27;20039;-77
2022/12/06 12:30:19;;;;;;;3.63;2.38;;;;;;;6.28;100.00;99810.41;6353610;27;20055;-76
2022/12/06 12:33:24;;;;;;;6.72;3.83;;;;;;;6.31;100.00;99822.34;6371217;27;20484;-76
2022/12/06 12:36:28;;;;;;;7.82;2.00;;;;;;;6.27;100.00;99798.34;6371586;27;20043;-76
2022/12/06 12:39:37;;;;;;;2.88;1.55;;;;;;;6.33;100.00;99816.19;6372372;27;20043;-77
2022/12/06 12:42:41;;;;;;;5.28;2.38;;;;;;;6.26;100.00;99799.25;6371079;27;20103;-76
2022/12/06 12:46:11;;;;;;;19.90;12.45;;;;;;;6.32;100.00;99808.47;6353761;27;20055;-76
2022/12/06 12:49:23;;;;;;;3.92;2.72;;;;;;;6.24;100.00;99814.88;6365297;27;20051;-77
2022/12/06 12:52:30;;;;;;;7.30;3.42;;;;;;;6.15;100.00;99801.50;6370986;27;20046;-77
2022/12/06 12:55:31;;;;;;;4.72;3.35;;;;;;;6.09;100.00;99817.31;6371082;27;20367;-76
2022/12/06 12:58:32;;;;;;;3.60;2.38;;;;;;;6.11;100.00;99816.34;6371888;27;20055;-76
2022/12/06 13:02:02;;;;;;;7.38;2.88;;;;;;;6.22;100.00;99813.28;6370897;27;20043;-77
2022/12/06 13:05:13;;;;;;;5.00;2.22;;;;;;;6.18;100.00;99809.97;6364354;28;20491;-77
2022/12/06 13:08:18;;;;;;;3.80;2.40;;;;;;;6.07;100.00;99819.97;6370548;28;20047;-76
2022/12/06 13:11:19;;;;;;;3.05;2.08;;;;;;;6.14;100.00;99810.19;6371798;27;20050;-76
2022/12/06 13:14:22;;;;;;;5.65;2.70;;;;;;;6.20;100.00;99810.75;6370714;28;20063;-77
2022/12/06 13:17:24;;;;;;;;;;;;;;;6.17;100.00;99821.22;6371093;28;20047;-76
2022/12/06 13:20:31;;;;;;;3.15;2.28;;;;;;;6.15;100.00;99817.88;6370655;28;19942;-77
2022/12/06 13:23:35;;;;;;;4.88;3.13;;;;;;;6.11;100.00;99826.69;6353344;28;20054;-77
2022/12/06 13:26:43;;;;;;;3.60;2.40;;;;;;;5.96;100.00;99825.66;6370307;28;20051;-76
2022/12/06 13:30:09;;;;;;;5.93;3.22;;;;;;;5.77;100.00;99817.03;6370540;28;20499;-76
2022/12/06 13:33:22;;;;;;;5.88;3.00;;;;;;;6.00;100.00;99823.78;6359556;28;20507;-77
2022/12/06 13:36:24;;;;;;;5.72;3.75;;;;;;;5.88;100.00;99821.72;6371624;27;20045;-76
2022/12/06 13:39:31;;;;;;;6.53;3.63;;;;;;;5.86;100.00;99817.44;6371666;27;20073;-75
2022/12/06 13:42:35;;;;;;;6.78;4.07;;;;;;;5.92;100.00;99821.50;6376314;27;20036;-76
2022/12/06 13:45:45;;;;;;;7.20;4.05;;;;;;;5.85;100.00;99820.13;6357981;27;20051;-76
2022/12/06 13:49:24;;;;;;;7.07;4.22;;;;;;;5.75;100.00;99835.22;6376528;27;20035;-76
2022/12/06 13:52:50;;;;;;;6.82;4.20;;;;;;;5.70;100.00;99828.56;6374838;27;20518;-76
2022/12/06 13:55:59;;;;;;;9.20;3.97;;;;;;;5.70;100.00;99838.91;6369079;27;20323;-76
2022/12/06 13:59:24;;;;;;;5.90;3.88;;;;;;;5.64;100.00;99840.00;6374615;27;20054;-76
2022/12/06 14:02:44;;;;;;;9.05;3.75;;;;;;;5.67;100.00;99836.47;6360763;27;20055;-76
2022/12/06 14:06:00;;;;;;;5.93;3.17;;;;;;;5.54;100.00;99830.97;6357579;27;20047;-76
2022/12/06 14:09:01;;;;;;;6.78;3.80;;;;;;;5.56;100.00;99831.75;6375844;27;20047;-76
2022/12/06 14:12:07;;;;;;;3.92;3.05;;;;;;;5.57;100.00;99844.63;6357436;27;20047;-76
2022/12/06 14:15:17;;;;;;;5.70;3.40;;;;;;;5.56;100.00;99848.13;6374263;27;20137;-77
2022/12/06 14:18:24;;;;;;;6.32;3.80;;;;;;;5.50;100.00;99844.94;6374508;27;20045;-76
2022/12/06 14:21:41;;;;;;;7.25;4.60;;;;;;;5.63;100.00;99846.09;6374349;27;20118;-76
2022/12/06 14:25:04;;;;;;;6.10;4.30;;;;;;;5.58;100.00;99850.63;6375478;27;20039;-76
2022/12/06 14:28:13;;;;;;;6.05;3.58;;;;;;;5.57;100.00;99854.13;6374285;27;20477;-76
2022/12/06 14:31:39;;;;;;;6.75;4.22;;;;;;;5.52;100.00;99861.25;6374267;27;20081;-77
2022/12/06 14:34:40;;;;;;;6.68;3.78;;;;;;;5.44;100.00;99853.84;6364512;27;20138;-77
2022/12/06 14:37:52;;;;;;;7.80;4.13;;;;;;;5.29;100.00;99849.31;6373975;27;20065;-76
2022/12/06 14:44:15;;;;;;;8.30;4.82;;;;;;;5.32;100.00;99847.44;6373537;27;20556;-76
2022/12/06 14:47:18;;;;;;;7.80;4.88;;;;;;;5.37;100.00;99850.66;6373764;27;20046;-77
2022/12/06 14:50:25;;;;;;;8.52;4.10;;;;;;;5.35;100.00;99852.47;6356649;27;20503;-76
2022/12/06 14:53:35;;;;;;;6.38;3.47;;;;;;;5.39;100.00;99856.59;6374136;27;20050;-76
2022/12/06 14:56:35;;;;;;;7.03;4.80;;;;;;;5.31;100.00;99845.72;6373368;27;20114;-76